sensor_id;sensor_type;location;lat;lon;timestamp;temperature;humidity
73570;SHT30;61850;54.980;73.298;2023-01-25T00:01:03;-8.98;84.78
73570;SHT30;61850;54.980;73.298;2023-01-25T00:03:29;-9.00;84.53
73570;SHT30;61850;54.980;73.298;2023-01-25T00:05:59;-9.04;84.84
73570;SHT30;61850;54.980;73.298;2023-01-25T00:08:26;-9.00;84.77
73570;SHT30;61850;54.980;73.298;2023-01-25T00:10:53;-9.04;84.70
73570;SHT30;61850;54.980;73.298;2023-01-25T00:13:26;-9.09;84.84
73570;SHT30;61850;54.980;73.298;2023-01-25T00:16:01;-9.00;84.73
73570;SHT30;61850;54.980;73.298;2023-01-25T00:18:29;-9.09;84.65
73570;SHT30;61850;54.980;73.298;2023-01-25T00:20:55;-9.04;84.73
73570;SHT30;61850;54.980;73.298;2023-01-25T00:23:22;-9.09;84.84
73570;SHT30;61850;54.980;73.298;2023-01-25T00:25:55;-9.01;84.70
73570;SHT30;61850;54.980;73.298;2023-01-25T00:28:22;-9.07;84.41
73570;SHT30;61850;54.980;73.298;2023-01-25T00:30:59;-9.11;84.60
73570;SHT30;61850;54.980;73.298;2023-01-25T00:34:00;-9.02;84.41
73570;SHT30;61850;54.980;73.298;2023-01-25T00:36:33;-9.05;84.59
73570;SHT30;61850;54.980;73.298;2023-01-25T00:39:14;-9.12;84.76
73570;SHT30;61850;54.980;73.298;2023-01-25T00:41:41;-9.12;84.60
73570;SHT30;61850;54.980;73.298;2023-01-25T00:44:08;-9.15;84.46
73570;SHT30;61850;54.980;73.298;2023-01-25T00:46:35;-9.05;84.63
73570;SHT30;61850;54.980;73.298;2023-01-25T00:49:18;-9.09;84.54
73570;SHT30;61850;54.980;73.298;2023-01-25T00:51:50;-9.12;84.69
73570;SHT30;61850;54.980;73.298;2023-01-25T00:54:19;-9.11;84.70
73570;SHT30;61850;54.980;73.298;2023-01-25T00:56:51;-9.14;84.77
73570;SHT30;61850;54.980;73.298;2023-01-25T00:59:18;-9.11;84.78
73570;SHT30;61850;54.980;73.298;2023-01-25T01:01:46;-9.16;84.65
73570;SHT30;61850;54.980;73.298;2023-01-25T01:04:23;-9.16;84.94
73570;SHT30;61850;54.980;73.298;2023-01-25T01:06:55;-9.09;84.93
73570;SHT30;61850;54.980;73.298;2023-01-25T01:09:22;-9.08;84.84
73570;SHT30;61850;54.980;73.298;2023-01-25T01:11:55;-9.01;84.87
73570;SHT30;61850;54.980;73.298;2023-01-25T01:14:26;-9.07;84.79
73570;SHT30;61850;54.980;73.298;2023-01-25T01:16:55;-9.00;84.82
73570;SHT30;61850;54.980;73.298;2023-01-25T01:19:26;-8.98;84.71
73570;SHT30;61850;54.980;73.298;2023-01-25T01:21:52;-9.00;84.78
73570;SHT30;61850;54.980;73.298;2023-01-25T01:24:24;-8.98;84.74
73570;SHT30;61850;54.980;73.298;2023-01-25T01:26:54;-8.98;84.77
73570;SHT30;61850;54.980;73.298;2023-01-25T01:29:22;-8.98;84.89
73570;SHT30;61850;54.980;73.298;2023-01-25T01:31:53;-9.07;84.91
73570;SHT30;61850;54.980;73.298;2023-01-25T01:34:24;-9.02;85.01
73570;SHT30;61850;54.980;73.298;2023-01-25T01:36:50;-9.05;85.17
73570;SHT30;61850;54.980;73.298;2023-01-25T01:39:22;-8.97;85.06
73570;SHT30;61850;54.980;73.298;2023-01-25T01:41:59;-8.94;85.00
73570;SHT30;61850;54.980;73.298;2023-01-25T01:44:41;-8.91;84.88
73570;SHT30;61850;54.980;73.298;2023-01-25T01:47:38;-8.97;85.07
73570;SHT30;61850;54.980;73.298;2023-01-25T01:50:16;-8.92;85.07
73570;SHT30;61850;54.980;73.298;2023-01-25T01:52:43;-8.88;85.00
73570;SHT30;61850;54.980;73.298;2023-01-25T01:55:11;-8.85;85.01
73570;SHT30;61850;54.980;73.298;2023-01-25T01:57:52;-8.92;85.07
73570;SHT30;61850;54.980;73.298;2023-01-25T02:00:30;-8.84;85.09
73570;SHT30;61850;54.980;73.298;2023-01-25T02:02:59;-8.81;85.01
73570;SHT30;61850;54.980;73.298;2023-01-25T02:05:39;-8.76;84.91
73570;SHT30;61850;54.980;73.298;2023-01-25T02:08:09;-8.73;84.98
73570;SHT30;61850;54.980;73.298;2023-01-25T02:10:41;-8.77;84.94
73570;SHT30;61850;54.980;73.298;2023-01-25T02:13:09;-8.71;85.02
73570;SHT30;61850;54.980;73.298;2023-01-25T02:15:37;-8.71;84.97
73570;SHT30;61850;54.980;73.298;2023-01-25T02:18:05;-8.70;84.95
73570;SHT30;61850;54.980;73.298;2023-01-25T02:25:55;-8.65;84.88
73570;SHT30;61850;54.980;73.298;2023-01-25T02:28:29;-8.65;84.94
73570;SHT30;61850;54.980;73.298;2023-01-25T02:31:00;-8.63;84.92
73570;SHT30;61850;54.980;73.298;2023-01-25T02:33:31;-8.61;84.87
73570;SHT30;61850;54.980;73.298;2023-01-25T02:36:40;-8.60;84.87
73570;SHT30;61850;54.980;73.298;2023-01-25T02:41:29;-8.61;84.84
73570;SHT30;61850;54.980;73.298;2023-01-25T02:43:58;-8.52;84.82
73570;SHT30;61850;54.980;73.298;2023-01-25T02:46:36;-8.49;84.68
73570;SHT30;61850;54.980;73.298;2023-01-25T02:49:04;-8.52;84.69
73570;SHT30;61850;54.980;73.298;2023-01-25T02:51:37;-8.50;84.80
73570;SHT30;61850;54.980;73.298;2023-01-25T02:54:05;-8.47;84.76
73570;SHT30;61850;54.980;73.298;2023-01-25T02:56:37;-8.44;84.64
73570;SHT30;61850;54.980;73.298;2023-01-25T02:59:11;-8.47;84.80
73570;SHT30;61850;54.980;73.298;2023-01-25T03:01:42;-8.36;84.59
73570;SHT30;61850;54.980;73.298;2023-01-25T03:04:09;-8.40;84.51
73570;SHT30;61850;54.980;73.298;2023-01-25T03:06:36;-8.28;84.49
73570;SHT30;61850;54.980;73.298;2023-01-25T03:09:04;-8.32;84.22
73570;SHT30;61850;54.980;73.298;2023-01-25T03:11:32;-8.28;84.38
73570;SHT30;61850;54.980;73.298;2023-01-25T03:13:59;-8.28;84.26
73570;SHT30;61850;54.980;73.298;2023-01-25T03:16:25;-8.29;84.20
73570;SHT30;61850;54.980;73.298;2023-01-25T03:18:55;-8.23;84.18
73570;SHT30;61850;54.980;73.298;2023-01-25T03:21:32;-8.16;84.05
73570;SHT30;61850;54.980;73.298;2023-01-25T03:24:00;-8.12;84.03
73570;SHT30;61850;54.980;73.298;2023-01-25T03:26:33;-8.09;83.92
73570;SHT30;61850;54.980;73.298;2023-01-25T03:29:23;-8.04;83.75
73570;SHT30;61850;54.980;73.298;2023-01-25T03:31:58;-7.99;83.77
73570;SHT30;61850;54.980;73.298;2023-01-25T03:34:29;-7.97;83.62
73570;SHT30;61850;54.980;73.298;2023-01-25T03:36:57;-7.95;83.43
73570;SHT30;61850;54.980;73.298;2023-01-25T03:39:24;-7.91;83.68
73570;SHT30;61850;54.980;73.298;2023-01-25T03:41:50;-7.85;83.25
73570;SHT30;61850;54.980;73.298;2023-01-25T03:44:27;-7.85;83.11
73570;SHT30;61850;54.980;73.298;2023-01-25T03:46:53;-7.77;82.93
73570;SHT30;61850;54.980;73.298;2023-01-25T03:49:21;-7.75;82.83
73570;SHT30;61850;54.980;73.298;2023-01-25T03:51:47;-7.67;82.47
73570;SHT30;61850;54.980;73.298;2023-01-25T03:54:15;-7.61;82.36
73570;SHT30;61850;54.980;73.298;2023-01-25T03:56:46;-7.56;82.13
73570;SHT30;61850;54.980;73.298;2023-01-25T03:59:19;-7.48;81.80
73570;SHT30;61850;54.980;73.298;2023-01-25T04:01:46;-7.47;81.82
73570;SHT30;61850;54.980;73.298;2023-01-25T04:04:12;-7.57;81.90
73570;SHT30;61850;54.980;73.298;2023-01-25T04:06:46;-7.53;81.85
73570;SHT30;61850;54.980;73.298;2023-01-25T04:09:18;-7.44;81.57
73570;SHT30;61850;54.980;73.298;2023-01-25T04:11:59;-7.44;81.69
73570;SHT30;61850;54.980;73.298;2023-01-25T04:14:25;-7.43;81.71
73570;SHT30;61850;54.980;73.298;2023-01-25T04:17:06;-7.39;81.39
73570;SHT30;61850;54.980;73.298;2023-01-25T04:19:38;-7.39;81.37
73570;SHT30;61850;54.980;73.298;2023-01-25T04:22:18;-7.26;81.06
73570;SHT30;61850;54.980;73.298;2023-01-25T04:24:47;-7.29;80.96
73570;SHT30;61850;54.980;73.298;2023-01-25T04:27:13;-7.23;80.85
73570;SHT30;61850;54.980;73.298;2023-01-25T04:29:50;-7.26;80.90
73570;SHT30;61850;54.980;73.298;2023-01-25T04:32:30;-7.15;80.69
73570;SHT30;61850;54.980;73.298;2023-01-25T04:35:07;-7.09;80.56
73570;SHT30;61850;54.980;73.298;2023-01-25T04:37:34;-7.01;80.46
73570;SHT30;61850;54.980;73.298;2023-01-25T04:40:02;-6.95;80.23
73570;SHT30;61850;54.980;73.298;2023-01-25T04:42:44;-6.99;80.07
73570;SHT30;61850;54.980;73.298;2023-01-25T04:45:15;-6.95;79.87
73570;SHT30;61850;54.980;73.298;2023-01-25T04:47:47;-6.91;79.92
73570;SHT30;61850;54.980;73.298;2023-01-25T04:50:25;-6.83;79.78
73570;SHT30;61850;54.980;73.298;2023-01-25T04:52:51;-6.81;79.79
73570;SHT30;61850;54.980;73.298;2023-01-25T04:55:18;-6.73;79.67
73570;SHT30;61850;54.980;73.298;2023-01-25T04:57:44;-6.67;79.58
73570;SHT30;61850;54.980;73.298;2023-01-25T05:00:20;-6.61;79.30
73570;SHT30;61850;54.980;73.298;2023-01-25T05:02:48;-6.71;79.34
73570;SHT30;61850;54.980;73.298;2023-01-25T05:05:24;-6.67;79.27
73570;SHT30;61850;54.980;73.298;2023-01-25T05:07:57;-6.68;79.34
73570;SHT30;61850;54.980;73.298;2023-01-25T05:10:26;-6.74;79.35
73570;SHT30;61850;54.980;73.298;2023-01-25T05:13:18;-6.60;79.28
73570;SHT30;61850;54.980;73.298;2023-01-25T05:15:47;-6.67;79.18
73570;SHT30;61850;54.980;73.298;2023-01-25T05:18:13;-6.67;79.21
73570;SHT30;61850;54.980;73.298;2023-01-25T05:20:39;-6.66;79.12
73570;SHT30;61850;54.980;73.298;2023-01-25T05:23:06;-6.68;79.17
73570;SHT30;61850;54.980;73.298;2023-01-25T05:25:42;-6.73;79.17
73570;SHT30;61850;54.980;73.298;2023-01-25T05:28:31;-6.68;78.95
73570;SHT30;61850;54.980;73.298;2023-01-25T05:31:11;-6.68;78.99
73570;SHT30;61850;54.980;73.298;2023-01-25T05:33:47;-6.73;79.07
73570;SHT30;61850;54.980;73.298;2023-01-25T05:36:13;-6.66;78.90
73570;SHT30;61850;54.980;73.298;2023-01-25T05:38:41;-6.60;78.76
73570;SHT30;61850;54.980;73.298;2023-01-25T05:41:08;-6.53;78.68
73570;SHT30;61850;54.980;73.298;2023-01-25T05:43:36;-6.50;78.56
73570;SHT30;61850;54.980;73.298;2023-01-25T05:46:14;-6.37;78.01
73570;SHT30;61850;54.980;73.298;2023-01-25T05:48:41;-6.25;78.01
73570;SHT30;61850;54.980;73.298;2023-01-25T05:51:09;-6.30;77.90
73570;SHT30;61850;54.980;73.298;2023-01-25T05:53:36;-6.32;78.10
73570;SHT30;61850;54.980;73.298;2023-01-25T05:56:04;-6.26;78.14
73570;SHT30;61850;54.980;73.298;2023-01-25T05:58:32;-6.27;77.67
73570;SHT30;61850;54.980;73.298;2023-01-25T06:01:04;-6.17;77.40
73570;SHT30;61850;54.980;73.298;2023-01-25T06:03:41;-6.06;77.19
73570;SHT30;61850;54.980;73.298;2023-01-25T06:06:09;-6.10;77.11
73570;SHT30;61850;54.980;73.298;2023-01-25T06:08:45;-6.16;77.21
73570;SHT30;61850;54.980;73.298;2023-01-25T06:11:13;-6.22;77.23
73570;SHT30;61850;54.980;73.298;2023-01-25T06:13:53;-6.16;76.83
73570;SHT30;61850;54.980;73.298;2023-01-25T06:16:20;-6.13;76.67
73570;SHT30;61850;54.980;73.298;2023-01-25T06:18:58;-6.22;76.61
73570;SHT30;61850;54.980;73.298;2023-01-25T06:21:40;-6.33;76.83
73570;SHT30;61850;54.980;73.298;2023-01-25T06:24:07;-6.27;76.81
73570;SHT30;61850;54.980;73.298;2023-01-25T06:26:35;-6.29;76.88
73570;SHT30;61850;54.980;73.298;2023-01-25T06:29:11;-6.25;76.72
73570;SHT30;61850;54.980;73.298;2023-01-25T06:31:38;-6.33;76.90
73570;SHT30;61850;54.980;73.298;2023-01-25T06:34:04;-6.30;76.92
73570;SHT30;61850;54.980;73.298;2023-01-25T06:36:33;-6.26;76.65
73570;SHT30;61850;54.980;73.298;2023-01-25T06:38:59;-6.34;76.69
73570;SHT30;61850;54.980;73.298;2023-01-25T06:41:29;-6.26;76.79
73570;SHT30;61850;54.980;73.298;2023-01-25T06:44:00;-6.17;76.37
73570;SHT30;61850;54.980;73.298;2023-01-25T06:46:26;-6.15;76.59
73570;SHT30;61850;54.980;73.298;2023-01-25T06:49:02;-6.19;76.56
73570;SHT30;61850;54.980;73.298;2023-01-25T06:51:29;-6.22;76.62
73570;SHT30;61850;54.980;73.298;2023-01-25T06:53:54;-6.23;76.65
73570;SHT30;61850;54.980;73.298;2023-01-25T06:56:25;-6.02;76.39
73570;SHT30;61850;54.980;73.298;2023-01-25T06:58:52;-5.99;76.33
73570;SHT30;61850;54.980;73.298;2023-01-25T07:01:22;-6.03;75.64
73570;SHT30;61850;54.980;73.298;2023-01-25T07:03:52;-5.92;75.33
73570;SHT30;61850;54.980;73.298;2023-01-25T07:06:30;-5.96;75.62
73570;SHT30;61850;54.980;73.298;2023-01-25T07:09:00;-5.98;76.02
73570;SHT30;61850;54.980;73.298;2023-01-25T07:11:37;-6.03;76.30
73570;SHT30;61850;54.980;73.298;2023-01-25T07:14:04;-5.95;76.13
73570;SHT30;61850;54.980;73.298;2023-01-25T07:16:30;-5.89;75.58
73570;SHT30;61850;54.980;73.298;2023-01-25T07:19:03;-5.85;75.39
73570;SHT30;61850;54.980;73.298;2023-01-25T07:21:30;-5.77;75.14
73570;SHT30;61850;54.980;73.298;2023-01-25T07:24:06;-5.71;74.64
73570;SHT30;61850;54.980;73.298;2023-01-25T07:26:34;-5.67;74.39
73570;SHT30;61850;54.980;73.298;2023-01-25T07:29:10;-5.75;74.19
73570;SHT30;61850;54.980;73.298;2023-01-25T07:31:37;-5.64;74.07
73570;SHT30;61850;54.980;73.298;2023-01-25T07:34:03;-5.63;73.98
73570;SHT30;61850;54.980;73.298;2023-01-25T07:36:29;-5.68;74.11
73570;SHT30;61850;54.980;73.298;2023-01-25T07:38:57;-5.71;74.49
73570;SHT30;61850;54.980;73.298;2023-01-25T07:41:28;-5.81;75.03
73570;SHT30;61850;54.980;73.298;2023-01-25T07:43:54;-5.73;74.96
73570;SHT30;61850;54.980;73.298;2023-01-25T07:46:32;-5.70;74.62
73570;SHT30;61850;54.980;73.298;2023-01-25T07:48:59;-5.84;74.60
73570;SHT30;61850;54.980;73.298;2023-01-25T07:51:27;-5.70;75.07
73570;SHT30;61850;54.980;73.298;2023-01-25T07:54:00;-5.71;74.89
73570;SHT30;61850;54.980;73.298;2023-01-25T07:56:33;-5.78;75.11
73570;SHT30;61850;54.980;73.298;2023-01-25T07:59:03;-5.78;75.28
73570;SHT30;61850;54.980;73.298;2023-01-25T08:01:40;-5.75;75.16
73570;SHT30;61850;54.980;73.298;2023-01-25T08:04:07;-5.70;74.87
73570;SHT30;61850;54.980;73.298;2023-01-25T08:06:35;-5.73;74.58
73570;SHT30;61850;54.980;73.298;2023-01-25T08:09:09;-5.73;74.64
73570;SHT30;61850;54.980;73.298;2023-01-25T08:11:37;-5.56;75.09
73570;SHT30;61850;54.980;73.298;2023-01-25T08:14:04;-5.60;74.99
73570;SHT30;61850;54.980;73.298;2023-01-25T08:16:40;-5.61;74.60
73570;SHT30;61850;54.980;73.298;2023-01-25T08:19:10;-5.37;74.33
73570;SHT30;61850;54.980;73.298;2023-01-25T08:21:37;-5.33;73.83
73570;SHT30;61850;54.980;73.298;2023-01-25T08:24:04;-5.37;73.53
73570;SHT30;61850;54.980;73.298;2023-01-25T08:26:31;-5.53;74.04
73570;SHT30;61850;54.980;73.298;2023-01-25T08:28:59;-5.61;74.24
73570;SHT30;61850;54.980;73.298;2023-01-25T08:31:32;-5.60;74.44
73570;SHT30;61850;54.980;73.298;2023-01-25T08:33:59;-5.47;73.73
73570;SHT30;61850;54.980;73.298;2023-01-25T08:36:27;-5.56;73.36
73570;SHT30;61850;54.980;73.298;2023-01-25T08:39:06;-5.66;73.24
73570;SHT30;61850;54.980;73.298;2023-01-25T08:41:42;-5.53;73.22
73570;SHT30;61850;54.980;73.298;2023-01-25T08:44:10;-5.53;73.22
73570;SHT30;61850;54.980;73.298;2023-01-25T08:46:36;-5.56;73.16
73570;SHT30;61850;54.980;73.298;2023-01-25T08:49:02;-5.54;73.25
73570;SHT30;61850;54.980;73.298;2023-01-25T08:51:36;-5.57;73.47
73570;SHT30;61850;54.980;73.298;2023-01-25T08:54:06;-5.56;73.42
73570;SHT30;61850;54.980;73.298;2023-01-25T08:56:40;-5.44;73.39
73570;SHT30;61850;54.980;73.298;2023-01-25T08:59:08;-5.43;72.85
73570;SHT30;61850;54.980;73.298;2023-01-25T09:01:34;-5.37;72.76
73570;SHT30;61850;54.980;73.298;2023-01-25T09:04:00;-5.47;72.73
73570;SHT30;61850;54.980;73.298;2023-01-25T09:06:26;-5.41;72.91
73570;SHT30;61850;54.980;73.298;2023-01-25T09:08:58;-5.46;73.14
73570;SHT30;61850;54.980;73.298;2023-01-25T09:11:24;-5.39;73.07
73570;SHT30;61850;54.980;73.298;2023-01-25T09:13:59;-5.58;72.33
73570;SHT30;61850;54.980;73.298;2023-01-25T09:16:31;-5.68;72.75
73570;SHT30;61850;54.980;73.298;2023-01-25T09:18:59;-5.78;73.60
73570;SHT30;61850;54.980;73.298;2023-01-25T09:21:31;-5.99;74.15
73570;SHT30;61850;54.980;73.298;2023-01-25T09:23:57;-5.95;74.42
73570;SHT30;61850;54.980;73.298;2023-01-25T09:26:24;-5.99;74.30
73570;SHT30;61850;54.980;73.298;2023-01-25T09:28:51;-6.05;73.87
73570;SHT30;61850;54.980;73.298;2023-01-25T09:31:19;-6.16;74.35
73570;SHT30;61850;54.980;73.298;2023-01-25T09:34:11;-6.25;74.56
73570;SHT30;61850;54.980;73.298;2023-01-25T09:36:38;-6.34;74.91
73570;SHT30;61850;54.980;73.298;2023-01-25T09:39:04;-6.46;75.03
73570;SHT30;61850;54.980;73.298;2023-01-25T09:41:33;-6.64;75.23
73570;SHT30;61850;54.980;73.298;2023-01-25T09:44:21;-6.67;75.28
73570;SHT30;61850;54.980;73.298;2023-01-25T09:46:56;-6.63;75.54
73570;SHT30;61850;54.980;73.298;2023-01-25T09:54:44;-6.71;74.75
73570;SHT30;61850;54.980;73.298;2023-01-25T09:57:24;-6.64;74.73
73570;SHT30;61850;54.980;73.298;2023-01-25T09:59:56;-6.68;74.72
73570;SHT30;61850;54.980;73.298;2023-01-25T10:04:55;-6.80;74.74
73570;SHT30;61850;54.980;73.298;2023-01-25T10:07:33;-6.78;74.65
73570;SHT30;61850;54.980;73.298;2023-01-25T10:11:04;-6.73;74.62
73570;SHT30;61850;54.980;73.298;2023-01-25T10:13:02;-6.80;74.40
73570;SHT30;61850;54.980;73.298;2023-01-25T10:15:40;-6.70;74.30
73570;SHT30;61850;54.980;73.298;2023-01-25T10:26:03;-6.63;73.84
73570;SHT30;61850;54.980;73.298;2023-01-25T10:28:48;-6.73;73.91
73570;SHT30;61850;54.980;73.298;2023-01-25T10:33:44;-6.63;73.73
73570;SHT30;61850;54.980;73.298;2023-01-25T10:36:15;-6.64;73.55
73570;SHT30;61850;54.980;73.298;2023-01-25T10:38:42;-6.58;73.45
73570;SHT30;61850;54.980;73.298;2023-01-25T10:41:16;-6.63;73.72
73570;SHT30;61850;54.980;73.298;2023-01-25T10:43:55;-6.70;73.86
73570;SHT30;61850;54.980;73.298;2023-01-25T10:46:40;-6.80;74.19
73570;SHT30;61850;54.980;73.298;2023-01-25T10:49:19;-6.84;74.59
73570;SHT30;61850;54.980;73.298;2023-01-25T10:51:49;-7.01;74.80
73570;SHT30;61850;54.980;73.298;2023-01-25T10:54:27;-7.11;74.83
73570;SHT30;61850;54.980;73.298;2023-01-25T10:56:53;-7.05;74.77
73570;SHT30;61850;54.980;73.298;2023-01-25T10:59:21;-7.26;74.82
73570;SHT30;61850;54.980;73.298;2023-01-25T11:01:50;-7.25;74.99
73570;SHT30;61850;54.980;73.298;2023-01-25T11:04:30;-7.27;75.33
73570;SHT30;61850;54.980;73.298;2023-01-25T11:06:58;-7.35;75.73
73570;SHT30;61850;54.980;73.298;2023-01-25T11:09:36;-7.50;76.55
73570;SHT30;61850;54.980;73.298;2023-01-25T11:12:15;-7.51;76.73
73570;SHT30;61850;54.980;73.298;2023-01-25T11:14:43;-7.80;77.13
73570;SHT30;61850;54.980;73.298;2023-01-25T11:17:27;-7.90;77.42
73570;SHT30;61850;54.980;73.298;2023-01-25T11:22:52;-8.02;77.91
73570;SHT30;61850;54.980;73.298;2023-01-25T11:25:53;-8.11;78.13
73570;SHT30;61850;54.980;73.298;2023-01-25T11:28:21;-8.19;78.38
73570;SHT30;61850;54.980;73.298;2023-01-25T11:30:55;-8.21;78.57
73570;SHT30;61850;54.980;73.298;2023-01-25T11:33:24;-8.25;78.41
73570;SHT30;61850;54.980;73.298;2023-01-25T11:36:14;-8.22;78.29
73570;SHT30;61850;54.980;73.298;2023-01-25T11:44:44;-8.42;79.03
73570;SHT30;61850;54.980;73.298;2023-01-25T11:47:37;-8.47;79.22
73570;SHT30;61850;54.980;73.298;2023-01-25T11:50:10;-8.50;79.45
73570;SHT30;61850;54.980;73.298;2023-01-25T12:05:51;-8.83;80.35
73570;SHT30;61850;54.980;73.298;2023-01-25T12:11:34;-8.95;80.58
73570;SHT30;61850;54.980;73.298;2023-01-25T12:14:14;-8.98;80.67
73570;SHT30;61850;54.980;73.298;2023-01-25T12:16:57;-9.02;80.81
73570;SHT30;61850;54.980;73.298;2023-01-25T12:25:02;-9.07;80.98
73570;SHT30;61850;54.980;73.298;2023-01-25T12:32:32;-9.11;81.21
73570;SHT30;61850;54.980;73.298;2023-01-25T12:37:46;-9.11;81.09
73570;SHT30;61850;54.980;73.298;2023-01-25T12:40:24;-9.16;81.16
73570;SHT30;61850;54.980;73.298;2023-01-25T12:42:55;-9.18;81.22
73570;SHT30;61850;54.980;73.298;2023-01-25T12:45:33;-9.18;81.34
73570;SHT30;61850;54.980;73.298;2023-01-25T12:48:17;-9.18;81.35
73570;SHT30;61850;54.980;73.298;2023-01-25T12:53:38;-9.19;81.28
73570;SHT30;61850;54.980;73.298;2023-01-25T12:57:04;-9.19;81.14
73570;SHT30;61850;54.980;73.298;2023-01-25T12:59:07;-9.19;81.15
73570;SHT30;61850;54.980;73.298;2023-01-25T13:01:44;-9.16;81.10
73570;SHT30;61850;54.980;73.298;2023-01-25T13:04:19;-9.14;81.12
73570;SHT30;61850;54.980;73.298;2023-01-25T13:07:06;-9.12;81.06
73570;SHT30;61850;54.980;73.298;2023-01-25T13:12:09;-9.16;80.97
73570;SHT30;61850;54.980;73.298;2023-01-25T13:14:36;-9.16;81.04
73570;SHT30;61850;54.980;73.298;2023-01-25T13:17:21;-9.19;81.04
73570;SHT30;61850;54.980;73.298;2023-01-25T13:19:48;-9.19;81.11
73570;SHT30;61850;54.980;73.298;2023-01-25T13:27:45;-9.21;80.77
73570;SHT30;61850;54.980;73.298;2023-01-25T13:30:30;-9.23;80.67
73570;SHT30;61850;54.980;73.298;2023-01-25T13:32:58;-9.22;80.63
73570;SHT30;61850;54.980;73.298;2023-01-25T13:35:34;-9.23;80.68
73570;SHT30;61850;54.980;73.298;2023-01-25T13:40:43;-9.31;80.75
73570;SHT30;61850;54.980;73.298;2023-01-25T13:43:16;-9.35;80.79
73570;SHT30;61850;54.980;73.298;2023-01-25T13:45:47;-9.39;80.88
73570;SHT30;61850;54.980;73.298;2023-01-25T13:48:20;-9.40;80.94
73570;SHT30;61850;54.980;73.298;2023-01-25T13:50:52;-9.42;80.87
73570;SHT30;61850;54.980;73.298;2023-01-25T13:53:25;-9.44;80.83
73570;SHT30;61850;54.980;73.298;2023-01-25T13:55:56;-9.44;80.92
73570;SHT30;61850;54.980;73.298;2023-01-25T13:58:32;-9.43;80.91
73570;SHT30;61850;54.980;73.298;2023-01-25T14:01:13;-9.47;80.86
73570;SHT30;61850;54.980;73.298;2023-01-25T14:03:53;-9.49;80.86
73570;SHT30;61850;54.980;73.298;2023-01-25T14:06:21;-9.46;80.85
73570;SHT30;61850;54.980;73.298;2023-01-25T14:08:51;-9.49;80.88
73570;SHT30;61850;54.980;73.298;2023-01-25T14:11:24;-9.49;80.90
73570;SHT30;61850;54.980;73.298;2023-01-25T14:13:56;-9.46;80.95
73570;SHT30;61850;54.980;73.298;2023-01-25T14:16:23;-9.52;80.92
73570;SHT30;61850;54.980;73.298;2023-01-25T14:19:21;-9.46;80.90
73570;SHT30;61850;54.980;73.298;2023-01-25T14:21:46;-9.40;80.81
73570;SHT30;61850;54.980;73.298;2023-01-25T14:24:16;-9.38;80.69
73570;SHT30;61850;54.980;73.298;2023-01-25T14:26:44;-9.39;80.70
73570;SHT30;61850;54.980;73.298;2023-01-25T14:29:19;-9.35;80.69
73570;SHT30;61850;54.980;73.298;2023-01-25T14:31:46;-9.35;80.66
73570;SHT30;61850;54.980;73.298;2023-01-25T14:34:18;-9.32;80.74
73570;SHT30;61850;54.980;73.298;2023-01-25T14:39:52;-9.29;80.56
73570;SHT30;61850;54.980;73.298;2023-01-25T14:42:24;-9.28;80.65
73570;SHT30;61850;54.980;73.298;2023-01-25T14:44:51;-9.31;80.67
73570;SHT30;61850;54.980;73.298;2023-01-25T14:47:30;-9.28;80.56
73570;SHT30;61850;54.980;73.298;2023-01-25T14:52:49;-9.28;80.63
73570;SHT30;61850;54.980;73.298;2023-01-25T14:55:16;-9.28;80.66
73570;SHT30;61850;54.980;73.298;2023-01-25T14:57:56;-9.28;80.62
73570;SHT30;61850;54.980;73.298;2023-01-25T15:00:24;-9.29;80.65
73570;SHT30;61850;54.980;73.298;2023-01-25T15:02:57;-9.28;80.68
73570;SHT30;61850;54.980;73.298;2023-01-25T15:05:34;-9.31;80.60
73570;SHT30;61850;54.980;73.298;2023-01-25T15:10:33;-9.28;80.64
73570;SHT30;61850;54.980;73.298;2023-01-25T15:15:52;-9.31;80.55
73570;SHT30;61850;54.980;73.298;2023-01-25T15:23:47;-9.31;80.49
73570;SHT30;61850;54.980;73.298;2023-01-25T15:26:21;-9.31;80.52
73570;SHT30;61850;54.980;73.298;2023-01-25T15:28:54;-9.28;80.37
73570;SHT30;61850;54.980;73.298;2023-01-25T15:33:47;-9.28;80.28
73570;SHT30;61850;54.980;73.298;2023-01-25T15:36:14;-9.28;80.28
73570;SHT30;61850;54.980;73.298;2023-01-25T15:38:51;-9.26;80.21
73570;SHT30;61850;54.980;73.298;2023-01-25T15:41:18;-9.32;80.26
73570;SHT30;61850;54.980;73.298;2023-01-25T15:43:45;-9.32;80.28
73570;SHT30;61850;54.980;73.298;2023-01-25T15:46:21;-9.32;80.25
73570;SHT30;61850;54.980;73.298;2023-01-25T15:48:57;-9.28;80.23
73570;SHT30;61850;54.980;73.298;2023-01-25T15:51:34;-9.31;80.17
73570;SHT30;61850;54.980;73.298;2023-01-25T15:54:10;-9.26;80.17
73570;SHT30;61850;54.980;73.298;2023-01-25T15:56:39;-9.31;80.18
73570;SHT30;61850;54.980;73.298;2023-01-25T15:59:07;-9.31;80.23
73570;SHT30;61850;54.980;73.298;2023-01-25T16:01:33;-9.29;80.18
73570;SHT30;61850;54.980;73.298;2023-01-25T16:04:10;-9.31;80.16
73570;SHT30;61850;54.980;73.298;2023-01-25T16:11:41;-9.33;80.29
73570;SHT30;61850;54.980;73.298;2023-01-25T16:14:07;-9.38;80.37
73570;SHT30;61850;54.980;73.298;2023-01-25T16:16:36;-9.35;80.42
73570;SHT30;61850;54.980;73.298;2023-01-25T16:19:09;-9.35;80.42
73570;SHT30;61850;54.980;73.298;2023-01-25T16:21:42;-9.33;80.36
73570;SHT30;61850;54.980;73.298;2023-01-25T16:24:09;-9.39;80.47
73570;SHT30;61850;54.980;73.298;2023-01-25T16:26:49;-9.36;80.38
73570;SHT30;61850;54.980;73.298;2023-01-25T16:29:22;-9.40;80.58
73570;SHT30;61850;54.980;73.298;2023-01-25T16:31:49;-9.40;80.52
73570;SHT30;61850;54.980;73.298;2023-01-25T16:34:22;-9.39;80.55
73570;SHT30;61850;54.980;73.298;2023-01-25T16:36:48;-9.43;80.57
73570;SHT30;61850;54.980;73.298;2023-01-25T16:39:17;-9.44;80.63
73570;SHT30;61850;54.980;73.298;2023-01-25T16:41:51;-9.46;80.66
73570;SHT30;61850;54.980;73.298;2023-01-25T16:44:18;-9.46;80.73
73570;SHT30;61850;54.980;73.298;2023-01-25T16:46:45;-9.50;80.85
73570;SHT30;61850;54.980;73.298;2023-01-25T16:49:17;-9.50;80.67
73570;SHT30;61850;54.980;73.298;2023-01-25T16:51:48;-9.50;80.77
73570;SHT30;61850;54.980;73.298;2023-01-25T16:54:15;-9.49;80.75
73570;SHT30;61850;54.980;73.298;2023-01-25T16:56:51;-9.49;80.62
73570;SHT30;61850;54.980;73.298;2023-01-25T16:59:19;-9.49;80.62
73570;SHT30;61850;54.980;73.298;2023-01-25T17:01:56;-9.59;80.75
73570;SHT30;61850;54.980;73.298;2023-01-25T17:04:28;-9.59;80.79
73570;SHT30;61850;54.980;73.298;2023-01-25T17:06:59;-9.57;80.87
73570;SHT30;61850;54.980;73.298;2023-01-25T17:09:25;-9.62;80.91
73570;SHT30;61850;54.980;73.298;2023-01-25T17:11:53;-9.62;80.99
73570;SHT30;61850;54.980;73.298;2023-01-25T17:14:19;-9.59;80.89
73570;SHT30;61850;54.980;73.298;2023-01-25T17:16:45;-9.60;80.91
73570;SHT30;61850;54.980;73.298;2023-01-25T17:19:14;-9.63;80.90
73570;SHT30;61850;54.980;73.298;2023-01-25T17:21:52;-9.66;80.91
73570;SHT30;61850;54.980;73.298;2023-01-25T17:24:18;-9.66;81.02
73570;SHT30;61850;54.980;73.298;2023-01-25T17:26:45;-9.66;81.03